RKPC

Jeju International Airport

Jeju City, South Korea
TAF RKPC 210500Z 2106/2212 05010KT CAVOK TN25/2120Z TX29/2203Z BECMG 2111/2112 11007KT BECMG 2119/2120 08015G25KT BECMG 2200/2201 07025G35KT 6000 FEW010 BKN025 OVC080 BECMG 2205/2206 07030G45KT 4200 -RA BECMG 2211/2212 10040G55KT 2800 RA
Issued Valid From Valid To
Aug-21 @ 05:00 UTC
(13 hours ago)
Aug-21 @ 06:00 UTC
(12 hours ago)
Aug-22 @ 12:00 UTC
(in 18 hours)
Expired Click to View Aug-21 @ 06:00 to Aug-21 @ 11:00
TAF RKPC 210500Z 2106/2212 05010KT CAVOK TN25/2120Z TX29/2203Z
Wind Visibility Clouds
50° at 10 knots 10,000+ meters
  • No significant clouds
Becoming Aug-21 @ 11:00 to Aug-21 @ 19:00
BECMG 2111/2112 11007KT
Wind Visibility Clouds
110° at 7 knots 10,000+ meters
  • No significant clouds
Becoming Aug-21 @ 19:00 to Aug-22 @ 00:00
BECMG 2119/2120 08015G25KT
Wind Visibility Clouds
80° at 15 knots
 Gusting to 25 knots
10,000+ meters
  • No significant clouds
Becoming Aug-22 @ 00:00 to Aug-22 @ 05:00
BECMG 2200/2201 07025G35KT 6000 FEW010 BKN025 OVC080
Wind Visibility Clouds
70° at 25 knots
 Gusting to 35 knots
6,003 meters
  • Few at 1,000' AGL
  • Broken at 2,500' AGL
  • Overcast at 8,000' AGL
Becoming Aug-22 @ 05:00 to Aug-22 @ 11:00
BECMG 2205/2206 07030G45KT 4200 -RA
Wind Visibility Clouds Conditions
70° at 30 knots
 Gusting to 45 knots
4,200 meters
  • Few at 1,000' AGL
  • Broken at 2,500' AGL
  • Overcast at 8,000' AGL
  • Light Rain
Becoming Aug-22 @ 11:00 to Aug-22 @ 12:00
BECMG 2211/2212 10040G55KT 2800 RA
Wind Visibility Clouds Conditions
100° at 40 knots
 Gusting to 55 knots
2,800 meters
  • Few at 1,000' AGL
  • Broken at 2,500' AGL
  • Overcast at 8,000' AGL
  • Rain
TAF RKPC 210500Z 2106/2212 05010KT CAVOK TN25/2120Z TX29/2203Z BECMG 2111/2112 11007KT BECMG 2119/2120 08015G25KT BECMG 2200/2201 07025G35KT 6000 FEW010 BKN025 OVC080 BECMG 2205/2206 07030G45KT 4200 -RA BECMG 2211/2212 10040G55KT 2800 RA
Issued Aug-21 @ 05:00 UTC
(13 hours ago)
Valid From Aug-21 @ 06:00 UTC
(12 hours ago)
Valid To Aug-22 @ 12:00 UTC
(in 18 hours)
Aug-21 @ 06:00 - Aug-21 @ 11:00
Wind Visibility
50° at 10 knots 10,000+ meters
Clouds
  • No significant clouds
Becoming Aug-21 @ 11:00 - Aug-21 @ 19:00
Wind Visibility
110° at 7 knots 10,000+ meters
Clouds
  • No significant clouds
Becoming Aug-21 @ 19:00 - Aug-22 @ 00:00
Wind Visibility
80° at 15 knots
 Gusting to 25 knots
10,000+ meters
Clouds
  • No significant clouds
Becoming Aug-22 @ 00:00 - Aug-22 @ 05:00
Wind Visibility
70° at 25 knots
 Gusting to 35 knots
6,003 meters
Clouds
  • Few at 1,000' AGL
  • Broken at 2,500' AGL
  • Overcast at 8,000' AGL
Becoming Aug-22 @ 05:00 - Aug-22 @ 11:00
Wind Visibility
70° at 30 knots
 Gusting to 45 knots
4,200 meters
Clouds
  • Few at 1,000' AGL
  • Broken at 2,500' AGL
  • Overcast at 8,000' AGL
Conditions
  • Light Rain
Becoming Aug-22 @ 11:00 - Aug-22 @ 12:00
Wind Visibility
100° at 40 knots
 Gusting to 55 knots
2,800 meters
Clouds
  • Few at 1,000' AGL
  • Broken at 2,500' AGL
  • Overcast at 8,000' AGL
Conditions
  • Rain